sensor_id;sensor_type;location;lat;lon;timestamp;P1;durP1;ratioP1;P2;durP2;ratioP2
64857;SDS011;51335;51.148;6.950;2022-10-26T00:00:08;4.75;;;1.40;;
64857;SDS011;51335;51.148;6.950;2022-10-26T00:00:38;4.57;;;1.60;;
64857;SDS011;51335;51.148;6.950;2022-10-26T00:01:09;6.05;;;1.73;;
64857;SDS011;51335;51.148;6.950;2022-10-26T00:01:41;4.95;;;1.70;;
64857;SDS011;51335;51.148;6.950;2022-10-26T00:02:11;5.00;;;1.55;;
64857;SDS011;51335;51.148;6.950;2022-10-26T00:02:42;3.90;;;1.50;;
64857;SDS011;51335;51.148;6.950;2022-10-26T00:03:12;5.55;;;1.52;;
64857;SDS011;51335;51.148;6.950;2022-10-26T00:03:43;4.82;;;1.67;;
64857;SDS011;51335;51.148;6.950;2022-10-26T00:04:14;8.07;;;1.65;;
64857;SDS011;51335;51.148;6.950;2022-10-26T00:04:45;5.40;;;1.45;;
64857;SDS011;51335;51.148;6.950;2022-10-26T00:05:15;4.07;;;1.50;;
64857;SDS011;51335;51.148;6.950;2022-10-26T00:05:45;9.07;;;1.85;;
64857;SDS011;51335;51.148;6.950;2022-10-26T00:06:17;5.28;;;1.50;;
64857;SDS011;51335;51.148;6.950;2022-10-26T00:06:48;3.20;;;1.48;;
64857;SDS011;51335;51.148;6.950;2022-10-26T00:07:18;5.60;;;1.70;;
64857;SDS011;51335;51.148;6.950;2022-10-26T00:07:49;5.65;;;1.67;;
64857;SDS011;51335;51.148;6.950;2022-10-26T00:08:20;3.50;;;1.45;;
64857;SDS011;51335;51.148;6.950;2022-10-26T00:08:50;5.38;;;1.60;;
64857;SDS011;51335;51.148;6.950;2022-10-26T00:09:21;6.85;;;1.65;;
64857;SDS011;51335;51.148;6.950;2022-10-26T00:09:51;6.43;;;1.52;;
64857;SDS011;51335;51.148;6.950;2022-10-26T00:10:22;5.35;;;1.60;;
64857;SDS011;51335;51.148;6.950;2022-10-26T00:10:52;7.93;;;1.77;;
64857;SDS011;51335;51.148;6.950;2022-10-26T00:11:32;8.90;;;1.70;;
64857;SDS011;51335;51.148;6.950;2022-10-26T00:12:03;9.02;;;1.80;;
64857;SDS011;51335;51.148;6.950;2022-10-26T00:12:33;4.32;;;1.67;;
64857;SDS011;51335;51.148;6.950;2022-10-26T00:13:04;7.28;;;1.70;;
64857;SDS011;51335;51.148;6.950;2022-10-26T00:13:38;5.32;;;1.65;;
64857;SDS011;51335;51.148;6.950;2022-10-26T00:14:08;9.82;;;1.90;;
64857;SDS011;51335;51.148;6.950;2022-10-26T00:14:39;3.17;;;1.52;;
64857;SDS011;51335;51.148;6.950;2022-10-26T00:15:09;6.35;;;1.50;;
64857;SDS011;51335;51.148;6.950;2022-10-26T00:15:40;6.13;;;1.52;;
64857;SDS011;51335;51.148;6.950;2022-10-26T00:16:12;11.90;;;2.00;;
64857;SDS011;51335;51.148;6.950;2022-10-26T00:16:44;7.10;;;1.50;;
64857;SDS011;51335;51.148;6.950;2022-10-26T00:17:14;5.47;;;1.60;;
64857;SDS011;51335;51.148;6.950;2022-10-26T00:17:45;8.30;;;1.55;;
64857;SDS011;51335;51.148;6.950;2022-10-26T00:18:15;6.30;;;1.88;;
64857;SDS011;51335;51.148;6.950;2022-10-26T00:18:46;5.40;;;1.40;;
64857;SDS011;51335;51.148;6.950;2022-10-26T00:19:16;4.18;;;1.33;;
64857;SDS011;51335;51.148;6.950;2022-10-26T00:19:47;8.40;;;1.88;;
64857;SDS011;51335;51.148;6.950;2022-10-26T00:20:17;3.92;;;1.42;;
64857;SDS011;51335;51.148;6.950;2022-10-26T00:20:48;4.93;;;1.45;;
64857;SDS011;51335;51.148;6.950;2022-10-26T00:21:18;6.97;;;1.63;;
64857;SDS011;51335;51.148;6.950;2022-10-26T00:21:49;7.95;;;1.50;;
64857;SDS011;51335;51.148;6.950;2022-10-26T00:22:19;5.80;;;1.50;;
64857;SDS011;51335;51.148;6.950;2022-10-26T00:22:49;3.83;;;1.38;;
64857;SDS011;51335;51.148;6.950;2022-10-26T00:23:20;5.63;;;1.60;;
64857;SDS011;51335;51.148;6.950;2022-10-26T00:23:50;7.15;;;1.60;;
64857;SDS011;51335;51.148;6.950;2022-10-26T00:24:20;7.25;;;1.75;;
64857;SDS011;51335;51.148;6.950;2022-10-26T00:24:50;6.70;;;1.60;;
64857;SDS011;51335;51.148;6.950;2022-10-26T00:25:21;4.60;;;1.60;;
64857;SDS011;51335;51.148;6.950;2022-10-26T00:25:54;8.05;;;1.60;;
64857;SDS011;51335;51.148;6.950;2022-10-26T00:26:26;3.85;;;1.50;;
64857;SDS011;51335;51.148;6.950;2022-10-26T00:26:56;4.47;;;1.38;;
64857;SDS011;51335;51.148;6.950;2022-10-26T00:27:26;4.40;;;1.55;;
64857;SDS011;51335;51.148;6.950;2022-10-26T00:27:57;4.63;;;1.50;;
64857;SDS011;51335;51.148;6.950;2022-10-26T00:28:27;5.38;;;1.58;;
64857;SDS011;51335;51.148;6.950;2022-10-26T00:28:57;8.00;;;1.60;;
64857;SDS011;51335;51.148;6.950;2022-10-26T00:29:28;4.20;;;1.38;;
64857;SDS011;51335;51.148;6.950;2022-10-26T00:29:58;4.20;;;1.58;;
64857;SDS011;51335;51.148;6.950;2022-10-26T00:30:33;10.13;;;1.63;;
64857;SDS011;51335;51.148;6.950;2022-10-26T00:31:06;8.60;;;1.50;;
64857;SDS011;51335;51.148;6.950;2022-10-26T00:31:38;3.90;;;1.33;;
64857;SDS011;51335;51.148;6.950;2022-10-26T00:32:08;7.78;;;1.90;;
64857;SDS011;51335;51.148;6.950;2022-10-26T00:32:39;9.15;;;1.77;;
64857;SDS011;51335;51.148;6.950;2022-10-26T00:33:11;3.97;;;1.77;;
64857;SDS011;51335;51.148;6.950;2022-10-26T00:33:42;4.85;;;1.55;;
64857;SDS011;51335;51.148;6.950;2022-10-26T00:34:12;4.82;;;1.40;;
64857;SDS011;51335;51.148;6.950;2022-10-26T00:34:42;7.15;;;1.70;;
64857;SDS011;51335;51.148;6.950;2022-10-26T00:35:13;7.03;;;1.52;;
64857;SDS011;51335;51.148;6.950;2022-10-26T00:35:46;3.47;;;1.67;;
64857;SDS011;51335;51.148;6.950;2022-10-26T00:36:17;8.40;;;1.80;;
64857;SDS011;51335;51.148;6.950;2022-10-26T00:36:47;7.25;;;1.60;;
64857;SDS011;51335;51.148;6.950;2022-10-26T00:37:17;6.78;;;1.60;;
64857;SDS011;51335;51.148;6.950;2022-10-26T00:37:48;6.03;;;1.50;;
64857;SDS011;51335;51.148;6.950;2022-10-26T00:38:18;12.05;;;1.88;;
64857;SDS011;51335;51.148;6.950;2022-10-26T00:38:49;4.82;;;1.50;;
64857;SDS011;51335;51.148;6.950;2022-10-26T00:39:23;6.78;;;1.52;;
64857;SDS011;51335;51.148;6.950;2022-10-26T00:39:53;6.00;;;1.77;;
64857;SDS011;51335;51.148;6.950;2022-10-26T00:40:27;6.28;;;1.90;;
64857;SDS011;51335;51.148;6.950;2022-10-26T00:40:58;3.92;;;1.35;;
64857;SDS011;51335;51.148;6.950;2022-10-26T00:41:29;8.07;;;1.50;;
64857;SDS011;51335;51.148;6.950;2022-10-26T00:42:01;6.82;;;1.70;;
64857;SDS011;51335;51.148;6.950;2022-10-26T00:42:31;5.25;;;1.58;;
64857;SDS011;51335;51.148;6.950;2022-10-26T00:43:01;5.32;;;1.60;;
64857;SDS011;51335;51.148;6.950;2022-10-26T00:43:36;5.30;;;1.42;;
64857;SDS011;51335;51.148;6.950;2022-10-26T00:45:50;6.95;;;1.90;;
64857;SDS011;51335;51.148;6.950;2022-10-26T00:46:30;4.47;;;1.55;;
64857;SDS011;51335;51.148;6.950;2022-10-26T00:47:03;5.72;;;1.70;;
64857;SDS011;51335;51.148;6.950;2022-10-26T00:47:36;3.75;;;1.30;;
64857;SDS011;51335;51.148;6.950;2022-10-26T00:48:19;6.03;;;1.60;;
64857;SDS011;51335;51.148;6.950;2022-10-26T00:48:55;5.95;;;1.50;;
64857;SDS011;51335;51.148;6.950;2022-10-26T00:49:29;5.47;;;1.40;;
64857;SDS011;51335;51.148;6.950;2022-10-26T00:50:01;7.22;;;1.30;;
64857;SDS011;51335;51.148;6.950;2022-10-26T00:50:38;4.50;;;1.60;;
64857;SDS011;51335;51.148;6.950;2022-10-26T00:51:17;4.25;;;1.40;;
64857;SDS011;51335;51.148;6.950;2022-10-26T00:51:52;3.28;;;1.30;;
64857;SDS011;51335;51.148;6.950;2022-10-26T00:52:23;5.20;;;1.40;;
64857;SDS011;51335;51.148;6.950;2022-10-26T00:52:54;4.40;;;1.50;;
64857;SDS011;51335;51.148;6.950;2022-10-26T00:53:26;4.03;;;1.40;;
64857;SDS011;51335;51.148;6.950;2022-10-26T00:54:02;5.50;;;1.48;;
64857;SDS011;51335;51.148;6.950;2022-10-26T00:54:36;3.88;;;1.60;;
64857;SDS011;51335;51.148;6.950;2022-10-26T00:55:06;6.90;;;1.70;;
64857;SDS011;51335;51.148;6.950;2022-10-26T00:55:38;5.05;;;1.83;;
64857;SDS011;51335;51.148;6.950;2022-10-26T00:56:12;4.95;;;1.40;;
64857;SDS011;51335;51.148;6.950;2022-10-26T00:56:42;5.13;;;1.65;;
64857;SDS011;51335;51.148;6.950;2022-10-26T00:57:14;6.70;;;1.48;;
64857;SDS011;51335;51.148;6.950;2022-10-26T00:57:47;5.45;;;1.30;;
64857;SDS011;51335;51.148;6.950;2022-10-26T00:58:18;4.00;;;1.45;;
64857;SDS011;51335;51.148;6.950;2022-10-26T00:58:50;6.82;;;1.50;;
64857;SDS011;51335;51.148;6.950;2022-10-26T00:59:21;7.05;;;2.03;;
64857;SDS011;51335;51.148;6.950;2022-10-26T00:59:52;3.53;;;1.38;;
64857;SDS011;51335;51.148;6.950;2022-10-26T01:00:24;5.60;;;1.40;;
64857;SDS011;51335;51.148;6.950;2022-10-26T01:00:55;6.72;;;1.50;;
64857;SDS011;51335;51.148;6.950;2022-10-26T01:01:25;5.45;;;1.42;;
64857;SDS011;51335;51.148;6.950;2022-10-26T01:01:56;7.65;;;2.13;;
64857;SDS011;51335;51.148;6.950;2022-10-26T01:02:26;6.93;;;1.50;;
64857;SDS011;51335;51.148;6.950;2022-10-26T01:02:57;6.90;;;1.58;;
64857;SDS011;51335;51.148;6.950;2022-10-26T01:03:32;5.80;;;1.60;;
64857;SDS011;51335;51.148;6.950;2022-10-26T01:04:04;5.55;;;1.67;;
64857;SDS011;51335;51.148;6.950;2022-10-26T01:04:35;5.97;;;1.33;;
64857;SDS011;51335;51.148;6.950;2022-10-26T01:05:05;5.53;;;1.65;;
64857;SDS011;51335;51.148;6.950;2022-10-26T01:05:36;4.90;;;1.67;;
64857;SDS011;51335;51.148;6.950;2022-10-26T01:06:09;6.93;;;1.77;;
64857;SDS011;51335;51.148;6.950;2022-10-26T01:06:42;5.65;;;1.73;;
64857;SDS011;51335;51.148;6.950;2022-10-26T01:07:14;4.22;;;1.60;;
64857;SDS011;51335;51.148;6.950;2022-10-26T01:07:44;4.80;;;1.35;;
64857;SDS011;51335;51.148;6.950;2022-10-26T01:08:17;8.07;;;1.90;;
64857;SDS011;51335;51.148;6.950;2022-10-26T01:08:47;4.85;;;1.63;;
64857;SDS011;51335;51.148;6.950;2022-10-26T01:09:18;7.35;;;1.70;;
64857;SDS011;51335;51.148;6.950;2022-10-26T01:09:49;5.45;;;1.60;;
64857;SDS011;51335;51.148;6.950;2022-10-26T01:10:20;8.02;;;1.70;;
64857;SDS011;51335;51.148;6.950;2022-10-26T01:10:51;7.22;;;1.65;;
64857;SDS011;51335;51.148;6.950;2022-10-26T01:11:21;6.55;;;1.58;;
64857;SDS011;51335;51.148;6.950;2022-10-26T01:11:51;6.72;;;1.73;;
64857;SDS011;51335;51.148;6.950;2022-10-26T01:12:22;6.97;;;1.35;;
64857;SDS011;51335;51.148;6.950;2022-10-26T01:12:52;8.98;;;1.73;;
64857;SDS011;51335;51.148;6.950;2022-10-26T01:13:25;6.07;;;1.58;;
64857;SDS011;51335;51.148;6.950;2022-10-26T01:13:57;5.30;;;1.50;;
64857;SDS011;51335;51.148;6.950;2022-10-26T01:14:30;5.55;;;1.50;;
64857;SDS011;51335;51.148;6.950;2022-10-26T01:15:01;7.90;;;1.50;;
64857;SDS011;51335;51.148;6.950;2022-10-26T01:16:36;2.38;;;1.27;;
64857;SDS011;51335;51.148;6.950;2022-10-26T01:17:34;4.30;;;1.52;;
64857;SDS011;51335;51.148;6.950;2022-10-26T01:19:51;5.82;;;1.73;;
64857;SDS011;51335;51.148;6.950;2022-10-26T01:21:19;5.50;;;1.30;;
64857;SDS011;51335;51.148;6.950;2022-10-26T01:22:05;5.72;;;1.55;;
64857;SDS011;51335;51.148;6.950;2022-10-26T01:22:46;6.10;;;1.60;;
64857;SDS011;51335;51.148;6.950;2022-10-26T01:23:43;5.68;;;1.30;;
64857;SDS011;51335;51.148;6.950;2022-10-26T01:27:35;4.68;;;1.23;;
64857;SDS011;51335;51.148;6.950;2022-10-26T01:31:04;4.50;;;1.30;;
64857;SDS011;51335;51.148;6.950;2022-10-26T01:31:41;3.42;;;1.27;;
64857;SDS011;51335;51.148;6.950;2022-10-26T01:34:15;3.45;;;1.67;;
64857;SDS011;51335;51.148;6.950;2022-10-26T01:35:09;3.22;;;1.35;;
64857;SDS011;51335;51.148;6.950;2022-10-26T01:36:56;3.88;;;1.40;;
64857;SDS011;51335;51.148;6.950;2022-10-26T01:37:32;4.70;;;1.63;;
64857;SDS011;51335;51.148;6.950;2022-10-26T01:38:09;2.25;;;1.25;;
64857;SDS011;51335;51.148;6.950;2022-10-26T01:38:50;5.03;;;1.30;;
64857;SDS011;51335;51.148;6.950;2022-10-26T01:39:37;10.00;;;1.63;;
64857;SDS011;51335;51.148;6.950;2022-10-26T01:40:16;5.22;;;1.38;;
64857;SDS011;51335;51.148;6.950;2022-10-26T01:41:12;6.03;;;1.45;;
64857;SDS011;51335;51.148;6.950;2022-10-26T01:41:51;3.92;;;1.35;;
64857;SDS011;51335;51.148;6.950;2022-10-26T01:42:25;7.82;;;1.40;;
64857;SDS011;51335;51.148;6.950;2022-10-26T01:42:58;4.07;;;1.05;;
64857;SDS011;51335;51.148;6.950;2022-10-26T01:43:34;5.90;;;1.63;;
64857;SDS011;51335;51.148;6.950;2022-10-26T01:44:09;4.00;;;1.17;;
64857;SDS011;51335;51.148;6.950;2022-10-26T01:45:03;4.85;;;1.27;;
64857;SDS011;51335;51.148;6.950;2022-10-26T01:45:38;9.18;;;1.48;;
64857;SDS011;51335;51.148;6.950;2022-10-26T01:46:12;6.68;;;1.40;;
64857;SDS011;51335;51.148;6.950;2022-10-26T01:46:44;5.20;;;1.50;;
64857;SDS011;51335;51.148;6.950;2022-10-26T01:47:17;7.50;;;1.77;;
64857;SDS011;51335;51.148;6.950;2022-10-26T01:47:50;7.03;;;1.48;;
64857;SDS011;51335;51.148;6.950;2022-10-26T01:48:23;6.95;;;1.45;;
64857;SDS011;51335;51.148;6.950;2022-10-26T01:48:55;4.72;;;1.25;;
64857;SDS011;51335;51.148;6.950;2022-10-26T01:49:32;10.13;;;1.67;;
64857;SDS011;51335;51.148;6.950;2022-10-26T01:50:05;5.65;;;1.40;;
64857;SDS011;51335;51.148;6.950;2022-10-26T01:50:37;10.40;;;1.88;;
64857;SDS011;51335;51.148;6.950;2022-10-26T01:51:10;4.30;;;1.40;;
64857;SDS011;51335;51.148;6.950;2022-10-26T01:51:42;9.48;;;1.58;;
64857;SDS011;51335;51.148;6.950;2022-10-26T01:52:16;5.93;;;1.48;;
64857;SDS011;51335;51.148;6.950;2022-10-26T01:52:48;5.57;;;1.50;;
64857;SDS011;51335;51.148;6.950;2022-10-26T01:53:19;10.35;;;1.50;;
64857;SDS011;51335;51.148;6.950;2022-10-26T01:53:50;8.20;;;1.33;;
64857;SDS011;51335;51.148;6.950;2022-10-26T01:54:20;8.00;;;1.80;;
64857;SDS011;51335;51.148;6.950;2022-10-26T01:54:50;4.45;;;1.17;;
64857;SDS011;51335;51.148;6.950;2022-10-26T01:56:23;3.20;;;1.58;;
64857;SDS011;51335;51.148;6.950;2022-10-26T01:56:56;6.57;;;1.50;;
64857;SDS011;51335;51.148;6.950;2022-10-26T01:57:31;5.75;;;1.38;;
64857;SDS011;51335;51.148;6.950;2022-10-26T01:58:10;4.88;;;1.33;;
64857;SDS011;51335;51.148;6.950;2022-10-26T02:00:09;5.88;;;1.50;;
64857;SDS011;51335;51.148;6.950;2022-10-26T02:00:42;7.25;;;1.83;;
64857;SDS011;51335;51.148;6.950;2022-10-26T02:03:09;4.85;;;1.35;;
64857;SDS011;51335;51.148;6.950;2022-10-26T02:06:05;3.78;;;1.10;;
64857;SDS011;51335;51.148;6.950;2022-10-26T02:07:24;4.95;;;1.30;;
64857;SDS011;51335;51.148;6.950;2022-10-26T02:08:07;4.20;;;1.20;;
64857;SDS011;51335;51.148;6.950;2022-10-26T02:08:49;4.63;;;1.45;;
64857;SDS011;51335;51.148;6.950;2022-10-26T02:09:45;4.55;;;1.40;;
64857;SDS011;51335;51.148;6.950;2022-10-26T02:11:42;4.47;;;1.33;;
64857;SDS011;51335;51.148;6.950;2022-10-26T02:12:25;8.10;;;1.30;;
64857;SDS011;51335;51.148;6.950;2022-10-26T02:13:03;6.40;;;1.40;;
64857;SDS011;51335;51.148;6.950;2022-10-26T02:13:55;5.78;;;1.50;;
64857;SDS011;51335;51.148;6.950;2022-10-26T02:15:18;7.82;;;1.42;;
64857;SDS011;51335;51.148;6.950;2022-10-26T02:16:26;4.32;;;1.20;;
64857;SDS011;51335;51.148;6.950;2022-10-26T02:18:06;3.90;;;1.15;;
64857;SDS011;51335;51.148;6.950;2022-10-26T02:19:08;6.20;;;1.20;;
64857;SDS011;51335;51.148;6.950;2022-10-26T02:20:34;4.57;;;1.20;;
64857;SDS011;51335;51.148;6.950;2022-10-26T02:21:09;2.85;;;1.10;;
64857;SDS011;51335;51.148;6.950;2022-10-26T02:21:45;3.92;;;1.42;;
64857;SDS011;51335;51.148;6.950;2022-10-26T02:22:25;5.05;;;1.40;;
64857;SDS011;51335;51.148;6.950;2022-10-26T02:23:05;4.97;;;1.33;;
64857;SDS011;51335;51.148;6.950;2022-10-26T02:23:37;4.35;;;1.20;;
64857;SDS011;51335;51.148;6.950;2022-10-26T02:24:11;5.10;;;1.30;;
64857;SDS011;51335;51.148;6.950;2022-10-26T02:24:43;4.13;;;1.45;;
64857;SDS011;51335;51.148;6.950;2022-10-26T02:25:17;9.77;;;1.50;;
64857;SDS011;51335;51.148;6.950;2022-10-26T02:25:54;5.20;;;1.30;;
64857;SDS011;51335;51.148;6.950;2022-10-26T02:26:27;5.18;;;1.50;;
64857;SDS011;51335;51.148;6.950;2022-10-26T02:26:59;7.18;;;1.52;;
64857;SDS011;51335;51.148;6.950;2022-10-26T02:27:33;3.85;;;1.27;;
64857;SDS011;51335;51.148;6.950;2022-10-26T02:28:06;16.88;;;1.73;;
64857;SDS011;51335;51.148;6.950;2022-10-26T02:28:45;5.97;;;1.33;;
64857;SDS011;51335;51.148;6.950;2022-10-26T02:29:19;7.97;;;1.80;;
64857;SDS011;51335;51.148;6.950;2022-10-26T02:29:52;5.80;;;1.60;;
64857;SDS011;51335;51.148;6.950;2022-10-26T02:30:24;4.55;;;1.55;;
64857;SDS011;51335;51.148;6.950;2022-10-26T02:30:56;3.65;;;1.50;;
64857;SDS011;51335;51.148;6.950;2022-10-26T02:31:29;4.60;;;1.30;;
64857;SDS011;51335;51.148;6.950;2022-10-26T02:32:01;5.57;;;1.50;;
64857;SDS011;51335;51.148;6.950;2022-10-26T02:32:33;3.25;;;1.38;;
64857;SDS011;51335;51.148;6.950;2022-10-26T02:33:06;9.75;;;1.40;;
64857;SDS011;51335;51.148;6.950;2022-10-26T02:33:40;10.40;;;1.77;;
64857;SDS011;51335;51.148;6.950;2022-10-26T02:34:15;5.43;;;1.30;;
64857;SDS011;51335;51.148;6.950;2022-10-26T02:34:50;7.43;;;1.98;;
64857;SDS011;51335;51.148;6.950;2022-10-26T02:35:22;7.95;;;1.80;;
64857;SDS011;51335;51.148;6.950;2022-10-26T02:35:59;4.05;;;1.40;;
64857;SDS011;51335;51.148;6.950;2022-10-26T02:36:32;7.03;;;1.45;;
64857;SDS011;51335;51.148;6.950;2022-10-26T02:37:05;3.28;;;1.20;;
64857;SDS011;51335;51.148;6.950;2022-10-26T02:37:37;7.32;;;1.70;;
64857;SDS011;51335;51.148;6.950;2022-10-26T02:38:09;4.95;;;1.67;;
64857;SDS011;51335;51.148;6.950;2022-10-26T02:38:42;5.80;;;1.73;;
64857;SDS011;51335;51.148;6.950;2022-10-26T02:39:14;5.32;;;1.52;;
64857;SDS011;51335;51.148;6.950;2022-10-26T02:39:47;5.72;;;1.40;;
64857;SDS011;51335;51.148;6.950;2022-10-26T02:40:21;15.88;;;1.80;;
64857;SDS011;51335;51.148;6.950;2022-10-26T02:40:55;4.35;;;1.60;;
64857;SDS011;51335;51.148;6.950;2022-10-26T02:41:27;7.90;;;1.40;;
64857;SDS011;51335;51.148;6.950;2022-10-26T02:41:59;5.25;;;1.45;;
64857;SDS011;51335;51.148;6.950;2022-10-26T02:42:33;8.88;;;1.27;;
64857;SDS011;51335;51.148;6.950;2022-10-26T02:43:05;3.47;;;1.35;;
64857;SDS011;51335;51.148;6.950;2022-10-26T02:43:42;4.22;;;1.42;;
64857;SDS011;51335;51.148;6.950;2022-10-26T02:44:24;8.70;;;1.45;;
64857;SDS011;51335;51.148;6.950;2022-10-26T02:44:57;6.10;;;1.33;;
64857;SDS011;51335;51.148;6.950;2022-10-26T02:45:32;5.20;;;1.10;;
64857;SDS011;51335;51.148;6.950;2022-10-26T02:46:10;5.82;;;1.48;;
64857;SDS011;51335;51.148;6.950;2022-10-26T02:46:45;6.30;;;1.92;;
64857;SDS011;51335;51.148;6.950;2022-10-26T02:47:16;7.05;;;1.40;;
64857;SDS011;51335;51.148;6.950;2022-10-26T02:47:48;4.95;;;1.48;;
64857;SDS011;51335;51.148;6.950;2022-10-26T02:48:19;4.60;;;1.17;;
64857;SDS011;51335;51.148;6.950;2022-10-26T02:48:50;4.65;;;1.42;;
64857;SDS011;51335;51.148;6.950;2022-10-26T02:49:20;6.55;;;2.22;;
64857;SDS011;51335;51.148;6.950;2022-10-26T02:49:51;9.15;;;2.28;;
64857;SDS011;51335;51.148;6.950;2022-10-26T02:50:25;7.15;;;1.50;;
64857;SDS011;51335;51.148;6.950;2022-10-26T02:51:54;5.55;;;1.70;;
64857;SDS011;51335;51.148;6.950;2022-10-26T02:52:38;4.85;;;1.55;;
64857;SDS011;51335;51.148;6.950;2022-10-26T02:53:30;7.53;;;2.30;;
64857;SDS011;51335;51.148;6.950;2022-10-26T02:54:10;10.55;;;2.70;;
64857;SDS011;51335;51.148;6.950;2022-10-26T02:55:03;13.02;;;2.78;;
64857;SDS011;51335;51.148;6.950;2022-10-26T02:57:34;8.32;;;1.80;;
64857;SDS011;51335;51.148;6.950;2022-10-26T02:58:07;6.72;;;1.73;;
64857;SDS011;51335;51.148;6.950;2022-10-26T02:58:43;10.82;;;4.00;;
64857;SDS011;51335;51.148;6.950;2022-10-26T02:59:17;10.80;;;3.58;;
64857;SDS011;51335;51.148;6.950;2022-10-26T02:59:49;7.10;;;2.25;;
64857;SDS011;51335;51.148;6.950;2022-10-26T03:00:19;8.48;;;2.47;;
64857;SDS011;51335;51.148;6.950;2022-10-26T03:00:50;8.50;;;2.47;;
64857;SDS011;51335;51.148;6.950;2022-10-26T03:01:20;4.82;;;1.45;;
64857;SDS011;51335;51.148;6.950;2022-10-26T03:01:51;5.55;;;1.45;;
64857;SDS011;51335;51.148;6.950;2022-10-26T03:02:22;6.68;;;1.88;;
64857;SDS011;51335;51.148;6.950;2022-10-26T03:02:53;9.63;;;2.58;;
64857;SDS011;51335;51.148;6.950;2022-10-26T03:03:26;9.27;;;2.55;;
64857;SDS011;51335;51.148;6.950;2022-10-26T03:03:56;8.25;;;2.38;;
64857;SDS011;51335;51.148;6.950;2022-10-26T03:04:30;6.50;;;2.67;;
64857;SDS011;51335;51.148;6.950;2022-10-26T03:05:45;10.63;;;1.98;;
64857;SDS011;51335;51.148;6.950;2022-10-26T03:05:57;7.72;;;2.70;;
64857;SDS011;51335;51.148;6.950;2022-10-26T03:06:28;4.57;;;1.80;;
64857;SDS011;51335;51.148;6.950;2022-10-26T03:06:58;4.35;;;1.85;;
64857;SDS011;51335;51.148;6.950;2022-10-26T03:07:29;6.90;;;1.50;;
64857;SDS011;51335;51.148;6.950;2022-10-26T03:07:59;3.60;;;1.40;;
64857;SDS011;51335;51.148;6.950;2022-10-26T03:08:29;5.60;;;1.85;;
64857;SDS011;51335;51.148;6.950;2022-10-26T03:09:00;9.00;;;1.70;;
64857;SDS011;51335;51.148;6.950;2022-10-26T03:09:30;7.30;;;1.80;;
64857;SDS011;51335;51.148;6.950;2022-10-26T03:10:00;5.82;;;1.50;;
64857;SDS011;51335;51.148;6.950;2022-10-26T03:10:31;5.75;;;1.92;;
64857;SDS011;51335;51.148;6.950;2022-10-26T03:11:02;8.15;;;1.88;;
64857;SDS011;51335;51.148;6.950;2022-10-26T03:11:33;6.75;;;1.80;;
64857;SDS011;51335;51.148;6.950;2022-10-26T03:12:03;7.20;;;1.67;;
64857;SDS011;51335;51.148;6.950;2022-10-26T03:12:34;5.82;;;1.95;;
64857;SDS011;51335;51.148;6.950;2022-10-26T03:13:04;13.95;;;4.93;;
64857;SDS011;51335;51.148;6.950;2022-10-26T03:13:34;10.90;;;4.03;;
64857;SDS011;51335;51.148;6.950;2022-10-26T03:14:04;12.50;;;5.50;;
64857;SDS011;51335;51.148;6.950;2022-10-26T03:14:35;10.18;;;4.25;;
64857;SDS011;51335;51.148;6.950;2022-10-26T03:15:05;9.32;;;3.17;;
64857;SDS011;51335;51.148;6.950;2022-10-26T03:15:36;11.45;;;3.55;;
64857;SDS011;51335;51.148;6.950;2022-10-26T03:16:06;6.82;;;2.55;;
64857;SDS011;51335;51.148;6.950;2022-10-26T03:16:36;5.13;;;2.33;;
64857;SDS011;51335;51.148;6.950;2022-10-26T03:17:07;6.15;;;2.70;;
64857;SDS011;51335;51.148;6.950;2022-10-26T03:17:37;9.43;;;4.57;;
64857;SDS011;51335;51.148;6.950;2022-10-26T03:18:07;10.55;;;3.90;;
64857;SDS011;51335;51.148;6.950;2022-10-26T03:18:38;8.05;;;2.83;;
64857;SDS011;51335;51.148;6.950;2022-10-26T03:19:08;10.20;;;2.25;;
64857;SDS011;51335;51.148;6.950;2022-10-26T03:19:38;9.48;;;2.08;;
64857;SDS011;51335;51.148;6.950;2022-10-26T03:20:09;5.93;;;2.35;;
64857;SDS011;51335;51.148;6.950;2022-10-26T03:20:42;7.05;;;2.38;;
64857;SDS011;51335;51.148;6.950;2022-10-26T03:21:13;23.35;;;10.95;;
64857;SDS011;51335;51.148;6.950;2022-10-26T03:21:43;12.85;;;6.47;;
64857;SDS011;51335;51.148;6.950;2022-10-26T03:22:13;8.30;;;3.53;;
64857;SDS011;51335;51.148;6.950;2022-10-26T03:22:45;8.88;;;2.70;;
64857;SDS011;51335;51.148;6.950;2022-10-26T03:23:16;7.47;;;2.72;;
64857;SDS011;51335;51.148;6.950;2022-10-26T03:23:47;6.88;;;2.15;;
64857;SDS011;51335;51.148;6.950;2022-10-26T03:24:17;7.32;;;2.00;;
64857;SDS011;51335;51.148;6.950;2022-10-26T03:24:47;5.53;;;2.30;;
64857;SDS011;51335;51.148;6.950;2022-10-26T03:25:17;16.88;;;6.95;;
64857;SDS011;51335;51.148;6.950;2022-10-26T03:25:48;16.35;;;6.55;;
64857;SDS011;51335;51.148;6.950;2022-10-26T03:26:18;15.80;;;6.30;;
64857;SDS011;51335;51.148;6.950;2022-10-26T03:26:48;12.60;;;5.30;;
64857;SDS011;51335;51.148;6.950;2022-10-26T03:27:18;5.75;;;2.33;;
64857;SDS011;51335;51.148;6.950;2022-10-26T03:27:55;7.45;;;2.55;;
64857;SDS011;51335;51.148;6.950;2022-10-26T03:28:26;6.97;;;2.33;;
64857;SDS011;51335;51.148;6.950;2022-10-26T03:28:57;6.55;;;2.30;;
64857;SDS011;51335;51.148;6.950;2022-10-26T03:29:28;6.80;;;2.35;;
64857;SDS011;51335;51.148;6.950;2022-10-26T03:29:58;8.40;;;1.90;;
64857;SDS011;51335;51.148;6.950;2022-10-26T03:30:29;8.00;;;2.38;;
64857;SDS011;51335;51.148;6.950;2022-10-26T03:31:00;9.77;;;3.72;;
64857;SDS011;51335;51.148;6.950;2022-10-26T03:31:30;8.20;;;3.13;;
64857;SDS011;51335;51.148;6.950;2022-10-26T03:32:00;7.18;;;2.17;;
64857;SDS011;51335;51.148;6.950;2022-10-26T03:32:30;8.35;;;2.55;;
64857;SDS011;51335;51.148;6.950;2022-10-26T03:33:01;8.23;;;2.78;;
64857;SDS011;51335;51.148;6.950;2022-10-26T03:33:31;9.48;;;1.65;;
64857;SDS011;51335;51.148;6.950;2022-10-26T03:34:01;6.43;;;1.75;;
64857;SDS011;51335;51.148;6.950;2022-10-26T03:34:32;6.38;;;2.00;;
64857;SDS011;51335;51.148;6.950;2022-10-26T03:35:02;7.88;;;2.75;;
64857;SDS011;51335;51.148;6.950;2022-10-26T03:35:33;10.32;;;2.40;;
64857;SDS011;51335;51.148;6.950;2022-10-26T03:36:03;13.18;;;6.07;;
64857;SDS011;51335;51.148;6.950;2022-10-26T03:36:34;11.02;;;3.03;;
64857;SDS011;51335;51.148;6.950;2022-10-26T03:37:04;7.13;;;2.70;;
64857;SDS011;51335;51.148;6.950;2022-10-26T03:37:34;6.03;;;1.95;;
64857;SDS011;51335;51.148;6.950;2022-10-26T03:38:05;8.23;;;2.17;;
64857;SDS011;51335;51.148;6.950;2022-10-26T03:38:35;12.10;;;2.58;;
64857;SDS011;51335;51.148;6.950;2022-10-26T03:39:05;5.10;;;1.65;;
64857;SDS011;51335;51.148;6.950;2022-10-26T03:39:35;6.60;;;1.98;;
64857;SDS011;51335;51.148;6.950;2022-10-26T03:40:06;7.05;;;1.88;;
64857;SDS011;51335;51.148;6.950;2022-10-26T03:40:37;5.00;;;1.70;;
64857;SDS011;51335;51.148;6.950;2022-10-26T03:41:07;8.38;;;1.60;;
64857;SDS011;51335;51.148;6.950;2022-10-26T03:41:37;8.48;;;1.50;;
64857;SDS011;51335;51.148;6.950;2022-10-26T03:42:07;8.05;;;1.60;;
64857;SDS011;51335;51.148;6.950;2022-10-26T03:42:38;7.78;;;2.00;;
64857;SDS011;51335;51.148;6.950;2022-10-26T03:43:09;8.38;;;1.70;;
64857;SDS011;51335;51.148;6.950;2022-10-26T03:43:39;6.68;;;1.30;;
64857;SDS011;51335;51.148;6.950;2022-10-26T03:44:09;6.25;;;1.55;;
64857;SDS011;51335;51.148;6.950;2022-10-26T03:44:39;5.07;;;1.75;;
64857;SDS011;51335;51.148;6.950;2022-10-26T03:45:10;7.40;;;2.13;;
64857;SDS011;51335;51.148;6.950;2022-10-26T03:45:40;5.50;;;1.55;;
64857;SDS011;51335;51.148;6.950;2022-10-26T03:46:10;5.65;;;1.90;;
64857;SDS011;51335;51.148;6.950;2022-10-26T03:46:41;4.40;;;1.52;;
64857;SDS011;51335;51.148;6.950;2022-10-26T03:47:11;7.00;;;1.67;;
64857;SDS011;51335;51.148;6.950;2022-10-26T03:47:42;6.68;;;1.95;;
64857;SDS011;51335;51.148;6.950;2022-10-26T03:48:16;4.20;;;1.48;;